sensor_id;sensor_type;location;lat;lon;timestamp;temperature;humidity
16823;DHT22;8528;49.976;11.858;2024-03-25T00:02:13;3.00;99.90
16823;DHT22;8528;49.976;11.858;2024-03-25T00:04:40;3.00;99.90
16823;DHT22;8528;49.976;11.858;2024-03-25T00:07:06;3.00;99.90
16823;DHT22;8528;49.976;11.858;2024-03-25T00:09:32;3.00;99.90
16823;DHT22;8528;49.976;11.858;2024-03-25T00:11:58;3.00;99.90
16823;DHT22;8528;49.976;11.858;2024-03-25T00:14:24;2.90;99.90
16823;DHT22;8528;49.976;11.858;2024-03-25T00:16:50;3.00;99.90
16823;DHT22;8528;49.976;11.858;2024-03-25T00:19:16;3.00;99.90
16823;DHT22;8528;49.976;11.858;2024-03-25T00:21:42;2.90;99.90
16823;DHT22;8528;49.976;11.858;2024-03-25T00:24:08;2.80;99.90
16823;DHT22;8528;49.976;11.858;2024-03-25T00:26:34;2.80;99.90
16823;DHT22;8528;49.976;11.858;2024-03-25T00:29:00;2.80;99.90
16823;DHT22;8528;49.976;11.858;2024-03-25T00:31:26;2.70;99.90
16823;DHT22;8528;49.976;11.858;2024-03-25T00:33:52;2.70;99.90
16823;DHT22;8528;49.976;11.858;2024-03-25T00:36:17;2.70;99.90
16823;DHT22;8528;49.976;11.858;2024-03-25T00:38:43;2.70;99.90
16823;DHT22;8528;49.976;11.858;2024-03-25T00:41:10;2.70;99.90
16823;DHT22;8528;49.976;11.858;2024-03-25T00:43:36;2.70;99.90
16823;DHT22;8528;49.976;11.858;2024-03-25T00:46:01;2.70;99.90
16823;DHT22;8528;49.976;11.858;2024-03-25T00:48:27;2.70;99.90
16823;DHT22;8528;49.976;11.858;2024-03-25T00:50:53;2.70;99.90
16823;DHT22;8528;49.976;11.858;2024-03-25T00:53:19;2.70;99.90
16823;DHT22;8528;49.976;11.858;2024-03-25T00:55:45;2.80;99.90
16823;DHT22;8528;49.976;11.858;2024-03-25T00:58:11;2.80;99.90
16823;DHT22;8528;49.976;11.858;2024-03-25T01:00:37;2.70;99.90
16823;DHT22;8528;49.976;11.858;2024-03-25T01:03:04;2.70;99.90
16823;DHT22;8528;49.976;11.858;2024-03-25T01:05:30;2.80;99.90
16823;DHT22;8528;49.976;11.858;2024-03-25T01:07:56;2.80;99.90
16823;DHT22;8528;49.976;11.858;2024-03-25T01:10:22;2.80;99.90
16823;DHT22;8528;49.976;11.858;2024-03-25T01:12:47;2.80;99.90
16823;DHT22;8528;49.976;11.858;2024-03-25T01:15:13;2.80;99.90
16823;DHT22;8528;49.976;11.858;2024-03-25T01:17:39;2.80;99.90
16823;DHT22;8528;49.976;11.858;2024-03-25T01:20:05;2.80;99.90
16823;DHT22;8528;49.976;11.858;2024-03-25T01:22:32;2.80;99.90
16823;DHT22;8528;49.976;11.858;2024-03-25T01:24:58;2.80;99.90
16823;DHT22;8528;49.976;11.858;2024-03-25T01:27:23;2.80;99.90
16823;DHT22;8528;49.976;11.858;2024-03-25T01:29:50;2.90;99.90
16823;DHT22;8528;49.976;11.858;2024-03-25T01:32:15;2.90;99.90
16823;DHT22;8528;49.976;11.858;2024-03-25T01:34:41;2.90;99.90
16823;DHT22;8528;49.976;11.858;2024-03-25T01:37:07;2.90;99.90
16823;DHT22;8528;49.976;11.858;2024-03-25T01:39:33;2.90;99.90
16823;DHT22;8528;49.976;11.858;2024-03-25T01:41:59;2.90;99.90
16823;DHT22;8528;49.976;11.858;2024-03-25T01:44:25;2.90;99.90
16823;DHT22;8528;49.976;11.858;2024-03-25T01:46:51;2.90;99.90
16823;DHT22;8528;49.976;11.858;2024-03-25T01:49:19;2.90;99.90
16823;DHT22;8528;49.976;11.858;2024-03-25T01:51:45;2.90;99.90
16823;DHT22;8528;49.976;11.858;2024-03-25T01:54:11;2.90;99.90
16823;DHT22;8528;49.976;11.858;2024-03-25T01:56:42;2.90;99.90
16823;DHT22;8528;49.976;11.858;2024-03-25T01:59:10;2.90;99.90
16823;DHT22;8528;49.976;11.858;2024-03-25T02:01:36;2.90;99.90
16823;DHT22;8528;49.976;11.858;2024-03-25T02:04:02;2.90;99.90
16823;DHT22;8528;49.976;11.858;2024-03-25T02:06:28;2.80;99.90
16823;DHT22;8528;49.976;11.858;2024-03-25T02:08:57;2.90;99.90
16823;DHT22;8528;49.976;11.858;2024-03-25T02:11:24;2.90;99.90
16823;DHT22;8528;49.976;11.858;2024-03-25T02:13:51;2.90;99.90
16823;DHT22;8528;49.976;11.858;2024-03-25T02:16:17;2.90;99.90
16823;DHT22;8528;49.976;11.858;2024-03-25T02:18:43;2.90;99.90
16823;DHT22;8528;49.976;11.858;2024-03-25T02:21:10;2.90;99.90
16823;DHT22;8528;49.976;11.858;2024-03-25T02:23:38;2.80;99.90
16823;DHT22;8528;49.976;11.858;2024-03-25T02:26:05;2.90;99.90
16823;DHT22;8528;49.976;11.858;2024-03-25T02:28:31;2.80;99.90
16823;DHT22;8528;49.976;11.858;2024-03-25T02:30:57;2.80;99.90
16823;DHT22;8528;49.976;11.858;2024-03-25T02:33:23;2.80;99.90
16823;DHT22;8528;49.976;11.858;2024-03-25T02:35:49;2.80;99.90
16823;DHT22;8528;49.976;11.858;2024-03-25T02:38:15;2.80;99.90
16823;DHT22;8528;49.976;11.858;2024-03-25T02:40:43;2.80;99.90
16823;DHT22;8528;49.976;11.858;2024-03-25T02:43:10;2.80;99.90
16823;DHT22;8528;49.976;11.858;2024-03-25T02:45:36;2.70;99.90
16823;DHT22;8528;49.976;11.858;2024-03-25T02:48:03;2.80;99.90
16823;DHT22;8528;49.976;11.858;2024-03-25T02:50:29;2.80;99.90
16823;DHT22;8528;49.976;11.858;2024-03-25T02:52:55;2.80;99.90
16823;DHT22;8528;49.976;11.858;2024-03-25T02:55:21;2.90;99.90
16823;DHT22;8528;49.976;11.858;2024-03-25T02:57:47;2.80;99.90
16823;DHT22;8528;49.976;11.858;2024-03-25T03:00:13;2.80;99.90
16823;DHT22;8528;49.976;11.858;2024-03-25T03:02:39;2.80;99.90
16823;DHT22;8528;49.976;11.858;2024-03-25T03:05:05;2.80;99.90
16823;DHT22;8528;49.976;11.858;2024-03-25T03:07:31;2.80;99.90
16823;DHT22;8528;49.976;11.858;2024-03-25T03:09:57;2.80;99.90
16823;DHT22;8528;49.976;11.858;2024-03-25T03:12:23;2.70;99.90
16823;DHT22;8528;49.976;11.858;2024-03-25T03:14:49;2.70;99.90
16823;DHT22;8528;49.976;11.858;2024-03-25T03:17:15;2.80;99.90
16823;DHT22;8528;49.976;11.858;2024-03-25T03:19:41;2.80;99.90
16823;DHT22;8528;49.976;11.858;2024-03-25T03:22:07;2.80;99.90
16823;DHT22;8528;49.976;11.858;2024-03-25T03:24:33;2.80;99.90
16823;DHT22;8528;49.976;11.858;2024-03-25T03:26:59;2.80;99.90
16823;DHT22;8528;49.976;11.858;2024-03-25T03:29:25;2.80;99.90
16823;DHT22;8528;49.976;11.858;2024-03-25T03:31:51;2.80;99.90
16823;DHT22;8528;49.976;11.858;2024-03-25T03:34:17;2.80;99.90
16823;DHT22;8528;49.976;11.858;2024-03-25T03:36:43;2.90;99.90
16823;DHT22;8528;49.976;11.858;2024-03-25T03:39:08;2.80;99.90
16823;DHT22;8528;49.976;11.858;2024-03-25T03:41:35;2.80;99.90
16823;DHT22;8528;49.976;11.858;2024-03-25T03:44:02;2.80;99.90
16823;DHT22;8528;49.976;11.858;2024-03-25T03:46:27;2.80;99.90
16823;DHT22;8528;49.976;11.858;2024-03-25T03:48:54;2.80;99.90
16823;DHT22;8528;49.976;11.858;2024-03-25T03:51:20;2.80;99.90
16823;DHT22;8528;49.976;11.858;2024-03-25T03:53:46;2.80;99.90
16823;DHT22;8528;49.976;11.858;2024-03-25T03:56:12;2.80;99.90
16823;DHT22;8528;49.976;11.858;2024-03-25T03:58:38;2.80;99.90
16823;DHT22;8528;49.976;11.858;2024-03-25T04:01:04;2.80;99.90
16823;DHT22;8528;49.976;11.858;2024-03-25T04:03:30;2.70;99.90
16823;DHT22;8528;49.976;11.858;2024-03-25T04:05:56;2.70;99.90
16823;DHT22;8528;49.976;11.858;2024-03-25T04:08:22;2.70;99.90
16823;DHT22;8528;49.976;11.858;2024-03-25T04:10:48;2.70;99.90
16823;DHT22;8528;49.976;11.858;2024-03-25T04:13:14;2.70;99.90
16823;DHT22;8528;49.976;11.858;2024-03-25T04:15:43;2.70;99.90
16823;DHT22;8528;49.976;11.858;2024-03-25T04:18:09;2.70;99.90
16823;DHT22;8528;49.976;11.858;2024-03-25T04:20:40;2.70;99.90
16823;DHT22;8528;49.976;11.858;2024-03-25T04:23:07;2.70;99.90
16823;DHT22;8528;49.976;11.858;2024-03-25T04:25:33;2.70;99.90
16823;DHT22;8528;49.976;11.858;2024-03-25T04:28:00;2.70;99.90
16823;DHT22;8528;49.976;11.858;2024-03-25T04:30:26;2.80;99.90
16823;DHT22;8528;49.976;11.858;2024-03-25T04:32:52;2.80;99.90
16823;DHT22;8528;49.976;11.858;2024-03-25T04:35:18;2.80;99.90
16823;DHT22;8528;49.976;11.858;2024-03-25T04:37:44;2.70;99.90
16823;DHT22;8528;49.976;11.858;2024-03-25T04:40:11;2.80;99.90
16823;DHT22;8528;49.976;11.858;2024-03-25T04:42:41;2.70;99.90
16823;DHT22;8528;49.976;11.858;2024-03-25T04:45:07;2.70;99.90
16823;DHT22;8528;49.976;11.858;2024-03-25T04:47:33;2.70;99.90
16823;DHT22;8528;49.976;11.858;2024-03-25T04:50:00;2.70;99.90
16823;DHT22;8528;49.976;11.858;2024-03-25T04:52:26;2.70;99.90
16823;DHT22;8528;49.976;11.858;2024-03-25T04:54:52;2.70;99.90
16823;DHT22;8528;49.976;11.858;2024-03-25T04:57:18;2.70;99.90
16823;DHT22;8528;49.976;11.858;2024-03-25T04:59:44;2.70;99.90
16823;DHT22;8528;49.976;11.858;2024-03-25T05:02:10;2.70;99.90
16823;DHT22;8528;49.976;11.858;2024-03-25T05:04:36;2.80;99.90
16823;DHT22;8528;49.976;11.858;2024-03-25T05:07:02;2.70;99.90
16823;DHT22;8528;49.976;11.858;2024-03-25T05:09:28;2.80;99.90
16823;DHT22;8528;49.976;11.858;2024-03-25T05:11:55;2.80;99.90
16823;DHT22;8528;49.976;11.858;2024-03-25T05:14:20;2.80;99.90
16823;DHT22;8528;49.976;11.858;2024-03-25T05:16:46;2.80;99.90
16823;DHT22;8528;49.976;11.858;2024-03-25T05:19:13;2.80;99.90
16823;DHT22;8528;49.976;11.858;2024-03-25T05:21:38;2.80;99.90
16823;DHT22;8528;49.976;11.858;2024-03-25T05:24:05;2.80;99.90
16823;DHT22;8528;49.976;11.858;2024-03-25T05:26:31;2.80;99.90
16823;DHT22;8528;49.976;11.858;2024-03-25T05:28:57;2.80;99.90
16823;DHT22;8528;49.976;11.858;2024-03-25T05:31:23;2.80;99.90
16823;DHT22;8528;49.976;11.858;2024-03-25T05:33:50;2.80;99.90
16823;DHT22;8528;49.976;11.858;2024-03-25T05:36:16;2.80;99.90
16823;DHT22;8528;49.976;11.858;2024-03-25T05:38:42;2.80;99.90
16823;DHT22;8528;49.976;11.858;2024-03-25T05:41:12;2.80;99.90
16823;DHT22;8528;49.976;11.858;2024-03-25T05:43:38;2.80;99.90
16823;DHT22;8528;49.976;11.858;2024-03-25T05:46:04;2.80;99.90
16823;DHT22;8528;49.976;11.858;2024-03-25T05:48:31;2.80;99.90
16823;DHT22;8528;49.976;11.858;2024-03-25T05:51:06;2.80;99.90
16823;DHT22;8528;49.976;11.858;2024-03-25T05:53:35;2.90;99.90
16823;DHT22;8528;49.976;11.858;2024-03-25T05:56:02;2.80;99.90
16823;DHT22;8528;49.976;11.858;2024-03-25T05:58:28;2.90;99.90
16823;DHT22;8528;49.976;11.858;2024-03-25T06:00:54;2.90;99.90
16823;DHT22;8528;49.976;11.858;2024-03-25T06:03:20;2.90;99.90
16823;DHT22;8528;49.976;11.858;2024-03-25T06:05:46;2.90;99.90
16823;DHT22;8528;49.976;11.858;2024-03-25T06:08:13;2.90;99.90
16823;DHT22;8528;49.976;11.858;2024-03-25T06:10:52;3.00;99.90
16823;DHT22;8528;49.976;11.858;2024-03-25T06:13:18;3.00;99.90
16823;DHT22;8528;49.976;11.858;2024-03-25T06:15:44;3.10;99.90
16823;DHT22;8528;49.976;11.858;2024-03-25T06:18:11;3.10;99.90
16823;DHT22;8528;49.976;11.858;2024-03-25T06:20:37;3.10;99.90
16823;DHT22;8528;49.976;11.858;2024-03-25T06:23:04;3.10;99.90
16823;DHT22;8528;49.976;11.858;2024-03-25T06:25:30;3.10;99.90
16823;DHT22;8528;49.976;11.858;2024-03-25T06:27:57;3.10;99.90
16823;DHT22;8528;49.976;11.858;2024-03-25T06:30:23;3.20;99.90
16823;DHT22;8528;49.976;11.858;2024-03-25T06:33:07;3.20;99.90
16823;DHT22;8528;49.976;11.858;2024-03-25T06:35:52;3.20;99.90
16823;DHT22;8528;49.976;11.858;2024-03-25T06:38:18;3.30;99.90
16823;DHT22;8528;49.976;11.858;2024-03-25T06:40:48;3.30;99.90
16823;DHT22;8528;49.976;11.858;2024-03-25T06:43:13;3.30;99.90
16823;DHT22;8528;49.976;11.858;2024-03-25T06:45:42;3.30;99.90
16823;DHT22;8528;49.976;11.858;2024-03-25T06:48:08;3.40;99.90
16823;DHT22;8528;49.976;11.858;2024-03-25T06:50:34;3.40;99.90
16823;DHT22;8528;49.976;11.858;2024-03-25T06:53:02;3.40;99.90
16823;DHT22;8528;49.976;11.858;2024-03-25T06:55:28;3.40;99.90
16823;DHT22;8528;49.976;11.858;2024-03-25T06:57:54;3.40;99.90
16823;DHT22;8528;49.976;11.858;2024-03-25T07:00:21;3.50;99.90
16823;DHT22;8528;49.976;11.858;2024-03-25T07:02:48;3.50;99.90
16823;DHT22;8528;49.976;11.858;2024-03-25T07:05:14;3.50;99.90
16823;DHT22;8528;49.976;11.858;2024-03-25T07:07:40;3.60;99.90
16823;DHT22;8528;49.976;11.858;2024-03-25T07:10:07;3.60;99.90
16823;DHT22;8528;49.976;11.858;2024-03-25T07:12:32;3.70;99.90
16823;DHT22;8528;49.976;11.858;2024-03-25T07:14:59;3.80;99.90
16823;DHT22;8528;49.976;11.858;2024-03-25T07:17:25;3.90;99.90
16823;DHT22;8528;49.976;11.858;2024-03-25T07:19:52;3.90;99.90
16823;DHT22;8528;49.976;11.858;2024-03-25T07:22:18;4.10;99.90
16823;DHT22;8528;49.976;11.858;2024-03-25T07:24:43;4.20;99.90
16823;DHT22;8528;49.976;11.858;2024-03-25T07:27:10;4.20;99.90
16823;DHT22;8528;49.976;11.858;2024-03-25T07:29:37;4.30;99.90
16823;DHT22;8528;49.976;11.858;2024-03-25T07:32:03;4.30;99.90
16823;DHT22;8528;49.976;11.858;2024-03-25T07:34:29;4.20;99.90
16823;DHT22;8528;49.976;11.858;2024-03-25T07:36:56;4.20;99.90
16823;DHT22;8528;49.976;11.858;2024-03-25T07:39:22;4.10;99.90
16823;DHT22;8528;49.976;11.858;2024-03-25T07:41:52;4.10;99.90
16823;DHT22;8528;49.976;11.858;2024-03-25T07:44:19;4.20;99.90
16823;DHT22;8528;49.976;11.858;2024-03-25T07:46:44;4.20;99.90
16823;DHT22;8528;49.976;11.858;2024-03-25T07:49:10;4.20;99.90
16823;DHT22;8528;49.976;11.858;2024-03-25T07:51:36;4.20;99.90
16823;DHT22;8528;49.976;11.858;2024-03-25T07:54:05;4.30;99.90
16823;DHT22;8528;49.976;11.858;2024-03-25T07:56:31;4.40;99.90
16823;DHT22;8528;49.976;11.858;2024-03-25T07:58:58;4.40;99.90
16823;DHT22;8528;49.976;11.858;2024-03-25T08:01:25;4.40;99.90
16823;DHT22;8528;49.976;11.858;2024-03-25T08:03:51;4.50;99.90
16823;DHT22;8528;49.976;11.858;2024-03-25T08:06:17;4.60;99.90
16823;DHT22;8528;49.976;11.858;2024-03-25T08:08:43;4.70;99.90
16823;DHT22;8528;49.976;11.858;2024-03-25T08:11:09;4.70;99.90
16823;DHT22;8528;49.976;11.858;2024-03-25T08:13:35;4.80;99.90
16823;DHT22;8528;49.976;11.858;2024-03-25T08:16:02;4.90;99.90
16823;DHT22;8528;49.976;11.858;2024-03-25T08:18:28;4.90;99.90
16823;DHT22;8528;49.976;11.858;2024-03-25T08:20:54;5.10;99.90
16823;DHT22;8528;49.976;11.858;2024-03-25T08:23:21;5.30;99.90
16823;DHT22;8528;49.976;11.858;2024-03-25T08:25:46;5.50;99.90
16823;DHT22;8528;49.976;11.858;2024-03-25T08:28:13;5.60;99.90
16823;DHT22;8528;49.976;11.858;2024-03-25T08:30:38;5.60;99.90
16823;DHT22;8528;49.976;11.858;2024-03-25T08:33:04;5.60;99.90
16823;DHT22;8528;49.976;11.858;2024-03-25T08:35:30;5.60;99.90
16823;DHT22;8528;49.976;11.858;2024-03-25T08:37:56;5.50;99.90
16823;DHT22;8528;49.976;11.858;2024-03-25T08:40:22;5.40;99.90
16823;DHT22;8528;49.976;11.858;2024-03-25T08:42:48;5.50;99.90
16823;DHT22;8528;49.976;11.858;2024-03-25T08:45:14;5.50;99.90
16823;DHT22;8528;49.976;11.858;2024-03-25T08:47:40;5.40;99.90
16823;DHT22;8528;49.976;11.858;2024-03-25T08:50:08;5.30;99.90
16823;DHT22;8528;49.976;11.858;2024-03-25T08:52:35;5.10;99.90
16823;DHT22;8528;49.976;11.858;2024-03-25T08:55:00;5.10;99.90
16823;DHT22;8528;49.976;11.858;2024-03-25T08:57:26;5.10;99.90
16823;DHT22;8528;49.976;11.858;2024-03-25T08:59:52;5.10;99.90
16823;DHT22;8528;49.976;11.858;2024-03-25T09:02:18;5.20;99.90
16823;DHT22;8528;49.976;11.858;2024-03-25T09:04:44;5.40;99.90
16823;DHT22;8528;49.976;11.858;2024-03-25T09:07:10;5.50;99.90
16823;DHT22;8528;49.976;11.858;2024-03-25T09:09:35;5.60;99.90
16823;DHT22;8528;49.976;11.858;2024-03-25T09:12:20;5.60;99.90
16823;DHT22;8528;49.976;11.858;2024-03-25T09:14:46;5.60;99.90
16823;DHT22;8528;49.976;11.858;2024-03-25T09:17:12;5.50;99.90
16823;DHT22;8528;49.976;11.858;2024-03-25T09:19:38;5.40;99.90
16823;DHT22;8528;49.976;11.858;2024-03-25T09:22:03;5.40;99.90
16823;DHT22;8528;49.976;11.858;2024-03-25T09:24:30;5.50;99.90
16823;DHT22;8528;49.976;11.858;2024-03-25T09:26:55;5.50;99.90
16823;DHT22;8528;49.976;11.858;2024-03-25T09:29:21;5.50;99.90
16823;DHT22;8528;49.976;11.858;2024-03-25T09:31:47;5.50;99.90
16823;DHT22;8528;49.976;11.858;2024-03-25T09:34:13;5.50;99.90
16823;DHT22;8528;49.976;11.858;2024-03-25T09:36:40;5.60;99.90
16823;DHT22;8528;49.976;11.858;2024-03-25T09:39:06;5.90;99.90
16823;DHT22;8528;49.976;11.858;2024-03-25T09:41:35;5.90;99.90
16823;DHT22;8528;49.976;11.858;2024-03-25T09:44:03;5.80;99.90
16823;DHT22;8528;49.976;11.858;2024-03-25T09:46:31;5.80;99.90
16823;DHT22;8528;49.976;11.858;2024-03-25T09:48:59;5.70;99.90
16823;DHT22;8528;49.976;11.858;2024-03-25T09:51:25;5.60;99.90
16823;DHT22;8528;49.976;11.858;2024-03-25T09:53:51;5.70;99.90
16823;DHT22;8528;49.976;11.858;2024-03-25T09:56:17;5.70;99.90
16823;DHT22;8528;49.976;11.858;2024-03-25T09:58:44;5.70;99.90
16823;DHT22;8528;49.976;11.858;2024-03-25T10:01:10;5.60;99.90
16823;DHT22;8528;49.976;11.858;2024-03-25T10:03:36;5.70;99.90
16823;DHT22;8528;49.976;11.858;2024-03-25T10:06:02;5.80;99.90
16823;DHT22;8528;49.976;11.858;2024-03-25T10:08:28;6.00;99.90
16823;DHT22;8528;49.976;11.858;2024-03-25T10:11:00;6.20;99.90
16823;DHT22;8528;49.976;11.858;2024-03-25T10:13:26;6.40;99.90
16823;DHT22;8528;49.976;11.858;2024-03-25T10:15:52;6.50;99.90
16823;DHT22;8528;49.976;11.858;2024-03-25T10:18:21;6.60;99.90
16823;DHT22;8528;49.976;11.858;2024-03-25T10:20:51;6.70;99.90
16823;DHT22;8528;49.976;11.858;2024-03-25T10:23:21;6.90;99.90
16823;DHT22;8528;49.976;11.858;2024-03-25T10:25:48;7.00;99.90
16823;DHT22;8528;49.976;11.858;2024-03-25T10:28:14;7.10;99.90
16823;DHT22;8528;49.976;11.858;2024-03-25T10:30:41;7.30;99.90
16823;DHT22;8528;49.976;11.858;2024-03-25T10:33:07;7.50;99.90
16823;DHT22;8528;49.976;11.858;2024-03-25T10:35:37;8.00;99.90
16823;DHT22;8528;49.976;11.858;2024-03-25T10:38:08;8.20;99.90
16823;DHT22;8528;49.976;11.858;2024-03-25T10:40:40;8.00;99.90
16823;DHT22;8528;49.976;11.858;2024-03-25T10:43:11;8.10;99.90
16823;DHT22;8528;49.976;11.858;2024-03-25T10:45:41;8.20;99.90
16823;DHT22;8528;49.976;11.858;2024-03-25T10:48:15;8.00;99.90
16823;DHT22;8528;49.976;11.858;2024-03-25T10:50:43;7.80;99.90
16823;DHT22;8528;49.976;11.858;2024-03-25T10:53:10;7.60;99.90
16823;DHT22;8528;49.976;11.858;2024-03-25T10:55:36;7.40;99.90
16823;DHT22;8528;49.976;11.858;2024-03-25T10:58:04;7.30;99.90
16823;DHT22;8528;49.976;11.858;2024-03-25T11:00:34;7.30;99.90
16823;DHT22;8528;49.976;11.858;2024-03-25T11:03:01;7.20;99.90
16823;DHT22;8528;49.976;11.858;2024-03-25T11:05:27;7.30;99.90
16823;DHT22;8528;49.976;11.858;2024-03-25T11:07:53;7.30;99.90
16823;DHT22;8528;49.976;11.858;2024-03-25T11:10:29;7.40;99.90
16823;DHT22;8528;49.976;11.858;2024-03-25T11:12:55;7.30;99.90
16823;DHT22;8528;49.976;11.858;2024-03-25T11:15:21;7.10;99.90
16823;DHT22;8528;49.976;11.858;2024-03-25T11:17:48;6.90;99.90
16823;DHT22;8528;49.976;11.858;2024-03-25T11:20:16;6.90;99.90
16823;DHT22;8528;49.976;11.858;2024-03-25T11:25:16;7.20;99.90
16823;DHT22;8528;49.976;11.858;2024-03-25T11:27:45;7.40;99.90
16823;DHT22;8528;49.976;11.858;2024-03-25T11:30:15;7.70;99.90
16823;DHT22;8528;49.976;11.858;2024-03-25T11:32:52;8.00;99.90
16823;DHT22;8528;49.976;11.858;2024-03-25T11:35:19;8.30;99.90
16823;DHT22;8528;49.976;11.858;2024-03-25T11:37:45;8.70;99.90
16823;DHT22;8528;49.976;11.858;2024-03-25T11:40:13;9.40;99.90
16823;DHT22;8528;49.976;11.858;2024-03-25T11:42:44;10.00;99.90
16823;DHT22;8528;49.976;11.858;2024-03-25T11:45:19;11.40;99.90
16823;DHT22;8528;49.976;11.858;2024-03-25T11:47:48;12.50;99.90
16823;DHT22;8528;49.976;11.858;2024-03-25T11:50:18;13.00;94.20
16823;DHT22;8528;49.976;11.858;2024-03-25T11:52:44;13.20;92.80
16823;DHT22;8528;49.976;11.858;2024-03-25T11:55:10;13.20;91.80
16823;DHT22;8528;49.976;11.858;2024-03-25T11:57:40;13.70;90.00
16823;DHT22;8528;49.976;11.858;2024-03-25T12:00:07;15.10;82.20
16823;DHT22;8528;49.976;11.858;2024-03-25T12:02:36;15.60;78.90
16823;DHT22;8528;49.976;11.858;2024-03-25T12:05:05;15.30;71.70
16823;DHT22;8528;49.976;11.858;2024-03-25T12:07:32;14.60;70.00
16823;DHT22;8528;49.976;11.858;2024-03-25T12:09:59;14.80;75.00
16823;DHT22;8528;49.976;11.858;2024-03-25T12:12:43;16.50;69.70
16823;DHT22;8528;49.976;11.858;2024-03-25T12:15:11;18.50;57.90
16823;DHT22;8528;49.976;11.858;2024-03-25T12:17:37;19.80;55.30
16823;DHT22;8528;49.976;11.858;2024-03-25T12:20:04;19.10;48.20
16823;DHT22;8528;49.976;11.858;2024-03-25T12:22:32;18.20;49.80
16823;DHT22;8528;49.976;11.858;2024-03-25T12:24:59;16.70;52.50
16823;DHT22;8528;49.976;11.858;2024-03-25T12:27:26;15.20;57.40
16823;DHT22;8528;49.976;11.858;2024-03-25T12:30:08;15.00;54.70
16823;DHT22;8528;49.976;11.858;2024-03-25T12:32:36;15.40;59.60
16823;DHT22;8528;49.976;11.858;2024-03-25T12:35:01;17.00;55.90
16823;DHT22;8528;49.976;11.858;2024-03-25T12:37:29;18.40;51.00
16823;DHT22;8528;49.976;11.858;2024-03-25T12:39:55;19.00;49.90
16823;DHT22;8528;49.976;11.858;2024-03-25T12:42:24;20.30;47.90
16823;DHT22;8528;49.976;11.858;2024-03-25T12:44:53;21.50;44.00
16823;DHT22;8528;49.976;11.858;2024-03-25T12:47:18;21.40;42.00
16823;DHT22;8528;49.976;11.858;2024-03-25T12:49:45;20.90;42.80
16823;DHT22;8528;49.976;11.858;2024-03-25T12:52:11;20.30;42.30
16823;DHT22;8528;49.976;11.858;2024-03-25T12:54:37;19.30;44.90
16823;DHT22;8528;49.976;11.858;2024-03-25T12:57:03;17.30;45.80
16823;DHT22;8528;49.976;11.858;2024-03-25T12:59:29;15.40;50.70
16823;DHT22;8528;49.976;11.858;2024-03-25T13:01:55;15.20;52.70
16823;DHT22;8528;49.976;11.858;2024-03-25T13:04:21;15.20;52.40
16823;DHT22;8528;49.976;11.858;2024-03-25T13:06:47;14.50;53.20
16823;DHT22;8528;49.976;11.858;2024-03-25T13:09:13;13.60;55.00
16823;DHT22;8528;49.976;11.858;2024-03-25T13:11:39;12.70;57.90
16823;DHT22;8528;49.976;11.858;2024-03-25T13:14:05;12.10;59.50
16823;DHT22;8528;49.976;11.858;2024-03-25T13:16:33;11.60;61.20
16823;DHT22;8528;49.976;11.858;2024-03-25T13:19:00;11.00;63.70
16823;DHT22;8528;49.976;11.858;2024-03-25T13:21:26;10.60;64.50
16823;DHT22;8528;49.976;11.858;2024-03-25T13:23:52;11.60;65.30
16823;DHT22;8528;49.976;11.858;2024-03-25T13:26:18;14.00;58.20
16823;DHT22;8528;49.976;11.858;2024-03-25T13:28:44;16.20;53.70
16823;DHT22;8528;49.976;11.858;2024-03-25T13:31:11;18.00;48.60
16823;DHT22;8528;49.976;11.858;2024-03-25T13:33:37;19.20;47.10
16823;DHT22;8528;49.976;11.858;2024-03-25T13:36:07;19.90;44.90
16823;DHT22;8528;49.976;11.858;2024-03-25T13:38:33;19.60;44.90
16823;DHT22;8528;49.976;11.858;2024-03-25T13:41:00;19.00;43.50
16823;DHT22;8528;49.976;11.858;2024-03-25T13:43:26;18.10;44.80
16823;DHT22;8528;49.976;11.858;2024-03-25T13:45:52;17.20;46.40
16823;DHT22;8528;49.976;11.858;2024-03-25T13:48:18;16.80;48.70
16823;DHT22;8528;49.976;11.858;2024-03-25T13:50:44;16.50;48.00
16823;DHT22;8528;49.976;11.858;2024-03-25T13:53:10;15.90;48.20
16823;DHT22;8528;49.976;11.858;2024-03-25T13:55:36;15.30;49.20
16823;DHT22;8528;49.976;11.858;2024-03-25T13:58:03;15.20;51.30
16823;DHT22;8528;49.976;11.858;2024-03-25T14:00:31;16.40;51.50
16823;DHT22;8528;49.976;11.858;2024-03-25T14:03:00;17.80;48.50
16823;DHT22;8528;49.976;11.858;2024-03-25T14:05:25;18.80;42.80
16823;DHT22;8528;49.976;11.858;2024-03-25T14:07:52;18.60;43.20
16823;DHT22;8528;49.976;11.858;2024-03-25T14:10:17;17.90;46.80
16823;DHT22;8528;49.976;11.858;2024-03-25T14:12:44;16.90;45.60
16823;DHT22;8528;49.976;11.858;2024-03-25T14:15:10;16.00;49.30
16823;DHT22;8528;49.976;11.858;2024-03-25T14:17:36;14.80;50.70
16823;DHT22;8528;49.976;11.858;2024-03-25T14:20:02;13.50;53.40
16823;DHT22;8528;49.976;11.858;2024-03-25T14:22:32;12.60;55.20
16823;DHT22;8528;49.976;11.858;2024-03-25T14:24:59;11.90;58.00
16823;DHT22;8528;49.976;11.858;2024-03-25T14:27:25;11.40;59.80
16823;DHT22;8528;49.976;11.858;2024-03-25T14:29:51;11.10;60.00
16823;DHT22;8528;49.976;11.858;2024-03-25T14:32:19;10.90;61.10
16823;DHT22;8528;49.976;11.858;2024-03-25T14:34:45;10.80;60.10
16823;DHT22;8528;49.976;11.858;2024-03-25T14:37:11;10.60;61.70
16823;DHT22;8528;49.976;11.858;2024-03-25T14:39:37;10.50;61.70
16823;DHT22;8528;49.976;11.858;2024-03-25T14:42:03;10.20;61.20
16823;DHT22;8528;49.976;11.858;2024-03-25T14:44:32;9.90;63.60
16823;DHT22;8528;49.976;11.858;2024-03-25T14:46:58;9.80;64.70
16823;DHT22;8528;49.976;11.858;2024-03-25T14:49:24;9.80;65.20
16823;DHT22;8528;49.976;11.858;2024-03-25T14:51:50;10.00;64.80
16823;DHT22;8528;49.976;11.858;2024-03-25T14:54:20;10.00;65.10
16823;DHT22;8528;49.976;11.858;2024-03-25T14:56:49;9.70;65.80
16823;DHT22;8528;49.976;11.858;2024-03-25T14:59:15;9.30;66.40
16823;DHT22;8528;49.976;11.858;2024-03-25T15:01:41;9.30;67.40
16823;DHT22;8528;49.976;11.858;2024-03-25T15:04:07;9.40;68.40
16823;DHT22;8528;49.976;11.858;2024-03-25T15:06:33;9.30;69.70
16823;DHT22;8528;49.976;11.858;2024-03-25T15:09:00;9.20;70.10
16823;DHT22;8528;49.976;11.858;2024-03-25T15:11:26;9.10;71.00
16823;DHT22;8528;49.976;11.858;2024-03-25T15:13:53;9.00;71.20
16823;DHT22;8528;49.976;11.858;2024-03-25T15:16:19;8.90;70.00
16823;DHT22;8528;49.976;11.858;2024-03-25T15:18:45;8.70;70.50
16823;DHT22;8528;49.976;11.858;2024-03-25T15:21:11;8.50;71.10
16823;DHT22;8528;49.976;11.858;2024-03-25T15:23:37;8.40;72.80
16823;DHT22;8528;49.976;11.858;2024-03-25T15:26:03;8.40;73.50
16823;DHT22;8528;49.976;11.858;2024-03-25T15:28:30;8.30;74.40
16823;DHT22;8528;49.976;11.858;2024-03-25T15:30:56;8.30;74.50
16823;DHT22;8528;49.976;11.858;2024-03-25T15:33:22;8.30;73.90
16823;DHT22;8528;49.976;11.858;2024-03-25T15:35:49;8.40;72.70
16823;DHT22;8528;49.976;11.858;2024-03-25T15:38:16;8.20;73.30
16823;DHT22;8528;49.976;11.858;2024-03-25T15:40:43;8.20;74.20
16823;DHT22;8528;49.976;11.858;2024-03-25T15:43:09;8.10;76.50